No particular awareness of the weather is required.    There are no Weather-warnings


Meteo18 Weather Cam more information Meteo18 Weather Cam


Thunder radar more information blitzortung!


Rain radar more information rain snow radar


Visit our other weather sites:

Template documentation
and downloads

And another site



Weather Underground History page Text

Daily Summary for July 16, 2017 Units:  Both    English   Metric
« Previous Day
Next Day »
Daily Weekly Monthly Yearly Custom
  High: Low: Average:
Temperature: 84.7 °F /  29.3 °C 57 °F /  13.9 °C 72.3 °F /  22.4 °C
Dew Point: 60.8 °F /  16.0 °C 52.9 °F /  11.6 °C 57.2 °F /  14 °C
Humidity: 89 % 42 % 61 %
Wind Speed: 12 mph /  19.3 km/h - 1.9 mph /  3.1 km/h
Wind Gust: 16 mph /  25.7 km/h - -
Wind:- - SE
Pressure: 30.3 in /  1026.0 hPa 30.2 in /  1022.2 hPa -
Precipitation: 0 in /  0.0 mm    
Historical Graphs
 
 
Tabular Data for July 16, 2017
Time Temperature Dew Point Pressure Wind Wind Speed Wind Gust Humidity Rainfall Rate (Hourly)
00:02 63.1 °F /  17.3 °C 54 °F /  12.2 °C 30.3 in /  1025.3 hPa Calm     72 % 0 in /  0.0 mm
00:07 63 °F /  17.2 °C 53.8 °F /  12.1 °C 30.3 in /  1025.3 hPa Calm     72 % 0 in /  0.0 mm
00:12 62.8 °F /  17.1 °C 54 °F /  12.2 °C 30.3 in /  1025.3 hPa Calm   1 mph /  1.6 km/h 73 % 0 in /  0.0 mm
00:17 62.4 °F /  16.9 °C 54 °F /  12.2 °C 30.3 in /  1025.3 hPa Calm   1 mph /  1.6 km/h 74 % 0 in /  0.0 mm
00:22 62.4 °F /  16.9 °C 54 °F /  12.2 °C 30.3 in /  1025.3 hPa Calm   1 mph /  1.6 km/h 74 % 0 in /  0.0 mm
00:32 62.8 °F /  17.1 °C 54 °F /  12.2 °C 30.3 in /  1025.3 hPa Calm   1 mph /  1.6 km/h 73 % 0 in /  0.0 mm
00:37 62.4 °F /  16.9 °C 54 °F /  12.2 °C 30.3 in /  1025.3 hPa Calm   1 mph /  1.6 km/h 74 % 0 in /  0.0 mm
00:42 62.2 °F /  16.8 °C 54.1 °F /  12.3 °C 30.3 in /  1025.3 hPa Calm   1 mph /  1.6 km/h 75 % 0 in /  0.0 mm
00:52 61.9 °F /  16.6 °C 53.8 °F /  12.1 °C 30.3 in /  1024.9 hPa Calm     75 % 0 in /  0.0 mm
00:57 61.5 °F /  16.4 °C 54 °F /  12.2 °C 30.3 in /  1024.9 hPa WNW 1 mph /  1.6 km/h 1 mph /  1.6 km/h 76 % 0 in /  0.0 mm
01:02 61.5 °F /  16.4 °C 54.3 °F /  12.4 °C 30.3 in /  1024.9 hPa WNW 1 mph /  1.6 km/h 1 mph /  1.6 km/h 77 % 0 in /  0.0 mm
01:12 61 °F /  16.1 °C 54.1 °F /  12.3 °C 30.3 in /  1024.9 hPa Calm   2 mph /  3.2 km/h 78 % 0 in /  0.0 mm
01:17 61 °F /  16.1 °C 54.1 °F /  12.3 °C 30.3 in /  1024.9 hPa WNW 1 mph /  1.6 km/h 2 mph /  3.2 km/h 78 % 0 in /  0.0 mm
01:22 60.6 °F /  15.9 °C 53.8 °F /  12.1 °C 30.3 in /  1025.3 hPa Calm   2 mph /  3.2 km/h 78 % 0 in /  0.0 mm
01:27 60.6 °F /  15.9 °C 54.1 °F /  12.3 °C 30.3 in /  1024.9 hPa Calm   1 mph /  1.6 km/h 79 % 0 in /  0.0 mm
01:32 60.6 °F /  15.9 °C 54.1 °F /  12.3 °C 30.3 in /  1025.3 hPa Calm   1 mph /  1.6 km/h 79 % 0 in /  0.0 mm
01:37 60.4 °F /  15.8 °C 54 °F /  12.2 °C 30.3 in /  1025.3 hPa Calm     79 % 0 in /  0.0 mm
01:42 60.4 °F /  15.8 °C 54 °F /  12.2 °C 30.3 in /  1024.9 hPa Calm     79 % 0 in /  0.0 mm
01:47 60.3 °F /  15.7 °C 53.8 °F /  12.1 °C 30.3 in /  1024.9 hPa Calm     79 % 0 in /  0.0 mm
01:52 60.3 °F /  15.7 °C 53.8 °F /  12.1 °C 30.3 in /  1024.9 hPa Calm   1 mph /  1.6 km/h 79 % 0 in /  0.0 mm
01:57 60.4 °F /  15.8 °C 54 °F /  12.2 °C 30.3 in /  1024.9 hPa Calm   1 mph /  1.6 km/h 79 % 0 in /  0.0 mm
02:02 60.3 °F /  15.7 °C 53.8 °F /  12.1 °C 30.3 in /  1024.9 hPa North 1 mph /  1.6 km/h 1 mph /  1.6 km/h 79 % 0 in /  0.0 mm
02:12 60.1 °F /  15.6 °C 54 °F /  12.2 °C 30.3 in /  1025.3 hPa Calm   1 mph /  1.6 km/h 80 % 0 in /  0.0 mm
02:17 59.9 °F /  15.5 °C 53.8 °F /  12.1 °C 30.3 in /  1025.3 hPa NNE 1 mph /  1.6 km/h 1 mph /  1.6 km/h 80 % 0 in /  0.0 mm
02:22 59.7 °F /  15.4 °C 53.6 °F /  12.0 °C 30.3 in /  1025.3 hPa Calm   1 mph /  1.6 km/h 80 % 0 in /  0.0 mm
02:27 59.7 °F /  15.4 °C 54 °F /  12.2 °C 30.3 in /  1025.3 hPa Calm   1 mph /  1.6 km/h 81 % 0 in /  0.0 mm
02:32 59.5 °F /  15.3 °C 53.8 °F /  12.1 °C 30.3 in /  1025.3 hPa Calm   1 mph /  1.6 km/h 81 % 0 in /  0.0 mm
02:37 59.2 °F /  15.1 °C 53.6 °F /  12.0 °C 30.3 in /  1024.9 hPa Calm   1 mph /  1.6 km/h 82 % 0 in /  0.0 mm
02:42 58.8 °F /  14.9 °C 53.6 °F /  12.0 °C 30.3 in /  1024.9 hPa WNW 1 mph /  1.6 km/h 1 mph /  1.6 km/h 83 % 0 in /  0.0 mm
02:47 58.6 °F /  14.8 °C 53.4 °F /  11.9 °C 30.3 in /  1025.3 hPa Calm   1 mph /  1.6 km/h 83 % 0 in /  0.0 mm
02:52 58.6 °F /  14.8 °C 53.4 °F /  11.9 °C 30.3 in /  1024.9 hPa Calm   1 mph /  1.6 km/h 83 % 0 in /  0.0 mm
02:57 58.5 °F /  14.7 °C 53.6 °F /  12.0 °C 30.3 in /  1025.3 hPa Calm   1 mph /  1.6 km/h 84 % 0 in /  0.0 mm
03:02 58.6 °F /  14.8 °C 53.8 °F /  12.1 °C 30.3 in /  1025.3 hPa Calm     84 % 0 in /  0.0 mm
03:07 59.2 °F /  15.1 °C 54 °F /  12.2 °C 30.3 in /  1025.3 hPa Calm     83 % 0 in /  0.0 mm
03:12 59.2 °F /  15.1 °C 53.6 °F /  12.0 °C 30.3 in /  1025.3 hPa Calm     82 % 0 in /  0.0 mm
03:17 59 °F /  15.0 °C 53.6 °F /  12.0 °C 30.3 in /  1024.9 hPa Calm     82 % 0 in /  0.0 mm
03:22 58.8 °F /  14.9 °C 53.6 °F /  12.0 °C 30.3 in /  1024.9 hPa Calm     83 % 0 in /  0.0 mm
03:27 58.6 °F /  14.8 °C 53.4 °F /  11.9 °C 30.3 in /  1024.9 hPa Calm     83 % 0 in /  0.0 mm
03:32 58.5 °F /  14.7 °C 53.6 °F /  12.0 °C 30.3 in /  1025.3 hPa Calm     84 % 0 in /  0.0 mm
03:37 58.1 °F /  14.5 °C 53.2 °F /  11.8 °C 30.3 in /  1025.3 hPa Calm     84 % 0 in /  0.0 mm
03:42 57.7 °F /  14.3 °C 53.2 °F /  11.8 °C 30.3 in /  1025.3 hPa Calm     85 % 0 in /  0.0 mm
03:47 57.6 °F /  14.2 °C 53.1 °F /  11.7 °C 30.3 in /  1025.3 hPa Calm     85 % 0 in /  0.0 mm
03:52 57.6 °F /  14.2 °C 53.4 °F /  11.9 °C 30.3 in /  1025.3 hPa Calm     86 % 0 in /  0.0 mm
03:57 57.6 °F /  14.2 °C 53.4 °F /  11.9 °C 30.3 in /  1025.3 hPa Calm     86 % 0 in /  0.0 mm
04:02 57.6 °F /  14.2 °C 53.4 °F /  11.9 °C 30.3 in /  1025.3 hPa Calm     86 % 0 in /  0.0 mm
04:12 57.7 °F /  14.3 °C 53.6 °F /  12.0 °C 30.3 in /  1025.3 hPa Calm     86 % 0 in /  0.0 mm
04:17 57.7 °F /  14.3 °C 53.2 °F /  11.8 °C 30.3 in /  1025.3 hPa Calm     85 % 0 in /  0.0 mm
04:22 57.6 °F /  14.2 °C 53.1 °F /  11.7 °C 30.3 in /  1025.3 hPa Calm     85 % 0 in /  0.0 mm
04:32 57.9 °F /  14.4 °C 53.1 °F /  11.7 °C 30.3 in /  1025.3 hPa Calm     84 % 0 in /  0.0 mm
04:37 57.9 °F /  14.4 °C 53.1 °F /  11.7 °C 30.3 in /  1025.3 hPa Calm     84 % 0 in /  0.0 mm
04:42 57.9 °F /  14.4 °C 53.1 °F /  11.7 °C 30.3 in /  1025.3 hPa Calm     84 % 0 in /  0.0 mm
04:47 57.9 °F /  14.4 °C 53.1 °F /  11.7 °C 30.3 in /  1025.3 hPa Calm     84 % 0 in /  0.0 mm
04:52 57.9 °F /  14.4 °C 53.1 °F /  11.7 °C 30.3 in /  1025.3 hPa Calm     84 % 0 in /  0.0 mm
04:57 57.9 °F /  14.4 °C 53.1 °F /  11.7 °C 30.3 in /  1025.3 hPa Calm     84 % 0 in /  0.0 mm
05:02 57.7 °F /  14.3 °C 52.9 °F /  11.6 °C 30.3 in /  1025.3 hPa Calm     84 % 0 in /  0.0 mm
05:12 57.6 °F /  14.2 °C 53.1 °F /  11.7 °C 30.3 in /  1025.3 hPa Calm     85 % 0 in /  0.0 mm
05:17 57.6 °F /  14.2 °C 53.1 °F /  11.7 °C 30.3 in /  1025.3 hPa Calm     85 % 0 in /  0.0 mm
05:22 57.4 °F /  14.1 °C 52.9 °F /  11.6 °C 30.3 in /  1025.3 hPa Calm     85 % 0 in /  0.0 mm
05:32 57 °F /  13.9 °C 52.9 °F /  11.6 °C 30.3 in /  1025.3 hPa Calm     86 % 0 in /  0.0 mm
05:42 57 °F /  13.9 °C 52.9 °F /  11.6 °C 30.3 in /  1025.3 hPa Calm     86 % 0 in /  0.0 mm
05:47 57 °F /  13.9 °C 52.9 °F /  11.6 °C 30.3 in /  1025.3 hPa Calm     86 % 0 in /  0.0 mm
05:52 57 °F /  13.9 °C 52.9 °F /  11.6 °C 30.3 in /  1025.3 hPa Calm     86 % 0 in /  0.0 mm
05:57 57.4 °F /  14.1 °C 53.6 °F /  12.0 °C 30.3 in /  1025.3 hPa Calm     87 % 0 in /  0.0 mm
06:02 57.6 °F /  14.2 °C 53.8 °F /  12.1 °C 30.3 in /  1025.3 hPa Calm     87 % 0 in /  0.0 mm
06:12 57.7 °F /  14.3 °C 54 °F /  12.2 °C 30.3 in /  1025.3 hPa Calm     87 % 0 in /  0.0 mm
06:17 57.7 °F /  14.3 °C 53.6 °F /  12.0 °C 30.3 in /  1025.3 hPa Calm     86 % 0 in /  0.0 mm
06:22 57.9 °F /  14.4 °C 53.8 °F /  12.1 °C 30.3 in /  1025.3 hPa Calm     86 % 0 in /  0.0 mm
06:32 58.5 °F /  14.7 °C 54.7 °F /  12.6 °C 30.3 in /  1025.3 hPa Calm     87 % 0 in /  0.0 mm
06:42 58.8 °F /  14.9 °C 55 °F /  12.8 °C 30.3 in /  1025.3 hPa Calm     87 % 0 in /  0.0 mm
06:47 58.8 °F /  14.9 °C 54.7 °F /  12.6 °C 30.3 in /  1025.3 hPa Calm     86 % 0 in /  0.0 mm
06:52 59 °F /  15.0 °C 54.9 °F /  12.7 °C 30.3 in /  1025.3 hPa Calm     86 % 0 in /  0.0 mm
06:57 59.2 °F /  15.1 °C 55.4 °F /  13.0 °C 30.3 in /  1025.6 hPa Calm     87 % 0 in /  0.0 mm
07:02 59.2 °F /  15.1 °C 54.7 °F /  12.6 °C 30.3 in /  1025.6 hPa Calm     85 % 0 in /  0.0 mm
07:12 59.2 °F /  15.1 °C 55.4 °F /  13.0 °C 30.3 in /  1025.6 hPa Calm     87 % 0 in /  0.0 mm
07:17 59.2 °F /  15.1 °C 55.4 °F /  13.0 °C 30.3 in /  1025.6 hPa Calm     87 % 0 in /  0.0 mm
07:22 59.4 °F /  15.2 °C 55.8 °F /  13.2 °C 30.3 in /  1025.6 hPa Calm     88 % 0 in /  0.0 mm
07:27 59.4 °F /  15.2 °C 56.1 °F /  13.4 °C 30.3 in /  1025.6 hPa Calm     89 % 0 in /  0.0 mm
07:32 59.5 °F /  15.3 °C 55.9 °F /  13.3 °C 30.3 in /  1025.6 hPa Calm     88 % 0 in /  0.0 mm
07:42 60.1 °F /  15.6 °C 56.1 °F /  13.4 °C 30.3 in /  1026.0 hPa Calm     87 % 0 in /  0.0 mm
07:52 60.4 °F /  15.8 °C 55.9 °F /  13.3 °C 30.3 in /  1026.0 hPa Calm     85 % 0 in /  0.0 mm
07:57 61 °F /  16.1 °C 56.5 °F /  13.6 °C 30.3 in /  1026.0 hPa Calm     85 % 0 in /  0.0 mm
08:02 61.5 °F /  16.4 °C 56.7 °F /  13.7 °C 30.3 in /  1026.0 hPa Calm     84 % 0 in /  0.0 mm
08:12 63 °F /  17.2 °C 57.4 °F /  14.1 °C 30.3 in /  1026.0 hPa Calm     82 % 0 in /  0.0 mm
08:17 63.7 °F /  17.6 °C 57.4 °F /  14.1 °C 30.3 in /  1026.0 hPa Calm     80 % 0 in /  0.0 mm
08:22 64 °F /  17.8 °C 57 °F /  13.9 °C 30.3 in /  1026.0 hPa Calm     78 % 0 in /  0.0 mm
08:32 64.8 °F /  18.2 °C 57 °F /  13.9 °C 30.3 in /  1026.0 hPa Calm     76 % 0 in /  0.0 mm
08:37 65.1 °F /  18.4 °C 57 °F /  13.9 °C 30.3 in /  1026.0 hPa Calm     75 % 0 in /  0.0 mm
08:42 65.5 °F /  18.6 °C 57 °F /  13.9 °C 30.3 in /  1026.0 hPa Calm     74 % 0 in /  0.0 mm
08:47 66 °F /  18.9 °C 57.2 °F /  14.0 °C 30.3 in /  1026.0 hPa Calm     73 % 0 in /  0.0 mm
08:52 66.7 °F /  19.3 °C 56.3 °F /  13.5 °C 30.3 in /  1026.0 hPa Calm     69 % 0 in /  0.0 mm
08:57 67.3 °F /  19.6 °C 56.3 °F /  13.5 °C 30.3 in /  1026.0 hPa Calm     68 % 0 in /  0.0 mm
09:02 68 °F /  20.0 °C 56.7 °F /  13.7 °C 30.3 in /  1026.0 hPa Calm     67 % 0 in /  0.0 mm
09:12 70.2 °F /  21.2 °C 57 °F /  13.9 °C 30.3 in /  1026.0 hPa Calm     63 % 0 in /  0.0 mm
09:17 70.9 °F /  21.6 °C 56.8 °F /  13.8 °C 30.3 in /  1026.0 hPa Calm     61 % 0 in /  0.0 mm
09:27 72 °F /  22.2 °C 57.4 °F /  14.1 °C 30.3 in /  1026.0 hPa Calm   2 mph /  3.2 km/h 60 % 0 in /  0.0 mm
09:32 72.1 °F /  22.3 °C 56.5 °F /  13.6 °C 30.3 in /  1026.0 hPa SSW 1 mph /  1.6 km/h 2 mph /  3.2 km/h 58 % 0 in /  0.0 mm
09:37 73 °F /  22.8 °C 56.8 °F /  13.8 °C 30.3 in /  1026.0 hPa Calm   2 mph /  3.2 km/h 57 % 0 in /  0.0 mm
09:42 73 °F /  22.8 °C 55.4 °F /  13.0 °C 30.3 in /  1026.0 hPa SSW 1 mph /  1.6 km/h 2 mph /  3.2 km/h 54 % 0 in /  0.0 mm
09:47 73.2 °F /  22.9 °C 55.6 °F /  13.1 °C 30.3 in /  1026.0 hPa Calm   3 mph /  4.8 km/h 54 % 0 in /  0.0 mm
09:52 73.9 °F /  23.3 °C 55.8 °F /  13.2 °C 30.3 in /  1026.0 hPa South 1 mph /  1.6 km/h 3 mph /  4.8 km/h 53 % 0 in /  0.0 mm
09:57 74.1 °F /  23.4 °C 55.4 °F /  13.0 °C 30.3 in /  1026.0 hPa SSW 1 mph /  1.6 km/h 3 mph /  4.8 km/h 52 % 0 in /  0.0 mm
10:02 74.1 °F /  23.4 °C 55.4 °F /  13.0 °C 30.3 in /  1026.0 hPa SSW 2 mph /  3.2 km/h 3 mph /  4.8 km/h 52 % 0 in /  0.0 mm
10:12 74.1 °F /  23.4 °C 55.4 °F /  13.0 °C 30.3 in /  1026.0 hPa Calm   3 mph /  4.8 km/h 52 % 0 in /  0.0 mm
10:17 74.3 °F /  23.5 °C 55 °F /  12.8 °C 30.3 in /  1026.0 hPa SW 1 mph /  1.6 km/h 3 mph /  4.8 km/h 51 % 0 in /  0.0 mm
10:22 74.8 °F /  23.8 °C 55.6 °F /  13.1 °C 30.3 in /  1026.0 hPa SSE 1 mph /  1.6 km/h 3 mph /  4.8 km/h 51 % 0 in /  0.0 mm
10:27 75 °F /  23.9 °C 55.6 °F /  13.1 °C 30.3 in /  1026.0 hPa West 1 mph /  1.6 km/h 3 mph /  4.8 km/h 51 % 0 in /  0.0 mm
10:32 75.4 °F /  24.1 °C 55.9 °F /  13.3 °C 30.3 in /  1025.6 hPa Calm   3 mph /  4.8 km/h 51 % 0 in /  0.0 mm
10:37 76.3 °F /  24.6 °C 55.2 °F /  12.9 °C 30.3 in /  1026.0 hPa NE 2 mph /  3.2 km/h 3 mph /  4.8 km/h 48 % 0 in /  0.0 mm
10:42 76.1 °F /  24.5 °C 55 °F /  12.8 °C 30.3 in /  1025.6 hPa East 4 mph /  6.4 km/h 4 mph /  6.4 km/h 48 % 0 in /  0.0 mm
10:47 75.7 °F /  24.3 °C 54.7 °F /  12.6 °C 30.3 in /  1025.6 hPa ESE 1 mph /  1.6 km/h 5 mph /  8.0 km/h 48 % 0 in /  0.0 mm
10:52 76.1 °F /  24.5 °C 56.1 °F /  13.4 °C 30.3 in /  1025.6 hPa East 2 mph /  3.2 km/h 6 mph /  9.7 km/h 50 % 0 in /  0.0 mm
11:02 77 °F /  25.0 °C 55.2 °F /  12.9 °C 30.3 in /  1025.6 hPa East 2 mph /  3.2 km/h 6 mph /  9.7 km/h 47 % 0 in /  0.0 mm
11:12 76.8 °F /  24.9 °C 55 °F /  12.8 °C 30.3 in /  1025.6 hPa Calm   4 mph /  6.4 km/h 47 % 0 in /  0.0 mm
11:17 77.4 °F /  25.2 °C 55.6 °F /  13.1 °C 30.3 in /  1025.6 hPa NNE 4 mph /  6.4 km/h 6 mph /  9.7 km/h 47 % 0 in /  0.0 mm
11:22 77.2 °F /  25.1 °C 55.4 °F /  13.0 °C 30.3 in /  1025.6 hPa WSW 1 mph /  1.6 km/h 6 mph /  9.7 km/h 47 % 0 in /  0.0 mm
11:27 77.4 °F /  25.2 °C 56.1 °F /  13.4 °C 30.3 in /  1025.6 hPa ENE 2 mph /  3.2 km/h 8 mph /  12.9 km/h 48 % 0 in /  0.0 mm
11:32 77.5 °F /  25.3 °C 55.8 °F /  13.2 °C 30.3 in /  1025.3 hPa ENE 5 mph /  8.0 km/h 8 mph /  12.9 km/h 47 % 0 in /  0.0 mm
11:42 77.7 °F /  25.4 °C 55.9 °F /  13.3 °C 30.3 in /  1025.3 hPa ENE 3 mph /  4.8 km/h 9 mph /  14.5 km/h 47 % 0 in /  0.0 mm
11:52 77.5 °F /  25.3 °C 56.3 °F /  13.5 °C 30.3 in /  1025.6 hPa East 3 mph /  4.8 km/h 8 mph /  12.9 km/h 48 % 0 in /  0.0 mm
11:57 78.1 °F /  25.6 °C 56.3 °F /  13.5 °C 30.3 in /  1025.3 hPa East 1 mph /  1.6 km/h 11 mph /  17.7 km/h 47 % 0 in /  0.0 mm
12:02 78.3 °F /  25.7 °C 57 °F /  13.9 °C 30.3 in /  1025.3 hPa ESE 2 mph /  3.2 km/h 11 mph /  17.7 km/h 48 % 0 in /  0.0 mm
12:12 78.6 °F /  25.9 °C 56.1 °F /  13.4 °C 30.3 in /  1025.3 hPa NNW 3 mph /  4.8 km/h 8 mph /  12.9 km/h 46 % 0 in /  0.0 mm
12:17 78.3 °F /  25.7 °C 55.8 °F /  13.2 °C 30.3 in /  1025.3 hPa SSE 1 mph /  1.6 km/h 9 mph /  14.5 km/h 46 % 0 in /  0.0 mm
12:22 79.2 °F /  26.2 °C 57.2 °F /  14.0 °C 30.3 in /  1025.3 hPa ENE 4 mph /  6.4 km/h 9 mph /  14.5 km/h 47 % 0 in /  0.0 mm
12:32 79 °F /  26.1 °C 56.5 °F /  13.6 °C 30.3 in /  1025.3 hPa ENE 4 mph /  6.4 km/h 9 mph /  14.5 km/h 46 % 0 in /  0.0 mm
12:42 79.7 °F /  26.5 °C 56.5 °F /  13.6 °C 30.3 in /  1025.3 hPa ENE 4 mph /  6.4 km/h 8 mph /  12.9 km/h 45 % 0 in /  0.0 mm
12:52 80.1 °F /  26.7 °C 57.4 °F /  14.1 °C 30.3 in /  1025.3 hPa NNW 1 mph /  1.6 km/h 9 mph /  14.5 km/h 46 % 0 in /  0.0 mm
13:02 80.2 °F /  26.8 °C 57.6 °F /  14.2 °C 30.3 in /  1024.9 hPa ENE 2 mph /  3.2 km/h 10 mph /  16.1 km/h 46 % 0 in /  0.0 mm
13:12 80.6 °F /  27.0 °C 57.9 °F /  14.4 °C 30.3 in /  1024.9 hPa North 7 mph /  11.3 km/h 8 mph /  12.9 km/h 46 % 0 in /  0.0 mm
13:17 80.8 °F /  27.1 °C 57.4 °F /  14.1 °C 30.3 in /  1024.9 hPa North 9 mph /  14.5 km/h 13 mph /  20.9 km/h 45 % 0 in /  0.0 mm
13:22 80.6 °F /  27.0 °C 57.4 °F /  14.1 °C 30.3 in /  1024.9 hPa NW 5 mph /  8.0 km/h 14 mph /  22.5 km/h 45 % 0 in /  0.0 mm
13:32 80.2 °F /  26.8 °C 57.6 °F /  14.2 °C 30.3 in /  1024.9 hPa Calm   13 mph /  20.9 km/h 46 % 0 in /  0.0 mm
13:42 80.8 °F /  27.1 °C 57.4 °F /  14.1 °C 30.3 in /  1024.9 hPa West 1 mph /  1.6 km/h 10 mph /  16.1 km/h 45 % 0 in /  0.0 mm
13:47 80.6 °F /  27.0 °C 58.5 °F /  14.7 °C 30.3 in /  1024.6 hPa Calm   10 mph /  16.1 km/h 47 % 0 in /  0.0 mm
13:52 81.3 °F /  27.4 °C 58.6 °F /  14.8 °C 30.3 in /  1024.6 hPa Calm   10 mph /  16.1 km/h 46 % 0 in /  0.0 mm
13:57 82 °F /  27.8 °C 59.2 °F /  15.1 °C 30.3 in /  1024.6 hPa NNE 12 mph /  19.3 km/h 12 mph /  19.3 km/h 46 % 0 in /  0.0 mm
14:02 81 °F /  27.2 °C 58.3 °F /  14.6 °C 30.3 in /  1024.6 hPa ESE 3 mph /  4.8 km/h 13 mph /  20.9 km/h 46 % 0 in /  0.0 mm
14:07 81 °F /  27.2 °C 58.3 °F /  14.6 °C 30.3 in /  1024.6 hPa ENE 6 mph /  9.7 km/h 13 mph /  20.9 km/h 46 % 0 in /  0.0 mm
14:12 81 °F /  27.2 °C 59.4 °F /  15.2 °C 30.3 in /  1024.6 hPa NE 8 mph /  12.9 km/h 13 mph /  20.9 km/h 48 % 0 in /  0.0 mm
14:17 81.5 °F /  27.5 °C 58.6 °F /  14.8 °C 30.3 in /  1024.6 hPa NE 8 mph /  12.9 km/h 12 mph /  19.3 km/h 46 % 0 in /  0.0 mm
14:22 81.1 °F /  27.3 °C 59 °F /  15.0 °C 30.3 in /  1024.6 hPa NNE 3 mph /  4.8 km/h 16 mph /  25.7 km/h 47 % 0 in /  0.0 mm
14:27 81.9 °F /  27.7 °C 59 °F /  15.0 °C 30.3 in /  1024.6 hPa NE 3 mph /  4.8 km/h 16 mph /  25.7 km/h 46 % 0 in /  0.0 mm
14:32 81.7 °F /  27.6 °C 59.5 °F /  15.3 °C 30.3 in /  1024.6 hPa NE 3 mph /  4.8 km/h 11 mph /  17.7 km/h 47 % 0 in /  0.0 mm
14:37 81.7 °F /  27.6 °C 59.5 °F /  15.3 °C 30.3 in /  1024.3 hPa ENE 8 mph /  12.9 km/h 11 mph /  17.7 km/h 47 % 0 in /  0.0 mm
14:42 82.2 °F /  27.9 °C 59.4 °F /  15.2 °C 30.3 in /  1024.3 hPa NE 5 mph /  8.0 km/h 11 mph /  17.7 km/h 46 % 0 in /  0.0 mm
14:47 82.6 °F /  28.1 °C 59.7 °F /  15.4 °C 30.3 in /  1024.3 hPa NE 1 mph /  1.6 km/h 11 mph /  17.7 km/h 46 % 0 in /  0.0 mm
14:52 83.1 °F /  28.4 °C 60.8 °F /  16.0 °C 30.3 in /  1024.3 hPa North 7 mph /  11.3 km/h 12 mph /  19.3 km/h 47 % 0 in /  0.0 mm
14:57 82.9 °F /  28.3 °C 60.1 °F /  15.6 °C 30.3 in /  1024.3 hPa NNE 5 mph /  8.0 km/h 12 mph /  19.3 km/h 46 % 0 in /  0.0 mm
15:02 82.6 °F /  28.1 °C 59 °F /  15.0 °C 30.3 in /  1024.3 hPa ENE 4 mph /  6.4 km/h 12 mph /  19.3 km/h 45 % 0 in /  0.0 mm
15:07 82.6 °F /  28.1 °C 59 °F /  15.0 °C 30.3 in /  1024.3 hPa ENE 4 mph /  6.4 km/h 10 mph /  16.1 km/h 45 % 0 in /  0.0 mm
15:12 82.4 °F /  28.0 °C 59.5 °F /  15.3 °C 30.3 in /  1024.3 hPa ENE 5 mph /  8.0 km/h 10 mph /  16.1 km/h 46 % 0 in /  0.0 mm
15:17 82.6 °F /  28.1 °C 59.7 °F /  15.4 °C 30.3 in /  1024.3 hPa NE 11 mph /  17.7 km/h 15 mph /  24.1 km/h 46 % 0 in /  0.0 mm
15:22 82.6 °F /  28.1 °C 59 °F /  15.0 °C 30.3 in /  1024.3 hPa East 4 mph /  6.4 km/h 15 mph /  24.1 km/h 45 % 0 in /  0.0 mm
15:27 82.6 °F /  28.1 °C 59.7 °F /  15.4 °C 30.3 in /  1024.3 hPa NNE 7 mph /  11.3 km/h 12 mph /  19.3 km/h 46 % 0 in /  0.0 mm
15:32 82.8 °F /  28.2 °C 59.9 °F /  15.5 °C 30.3 in /  1024.3 hPa NW 2 mph /  3.2 km/h 12 mph /  19.3 km/h 46 % 0 in /  0.0 mm
15:37 83.1 °F /  28.4 °C 59.5 °F /  15.3 °C 30.3 in /  1024.3 hPa Calm   13 mph /  20.9 km/h 45 % 0 in /  0.0 mm
15:42 83.7 °F /  28.7 °C 60.1 °F /  15.6 °C 30.3 in /  1024.3 hPa East 4 mph /  6.4 km/h 13 mph /  20.9 km/h 45 % 0 in /  0.0 mm
15:47 84.4 °F /  29.1 °C 59.4 °F /  15.2 °C 30.3 in /  1024.3 hPa NW 6 mph /  9.7 km/h 13 mph /  20.9 km/h 43 % 0 in /  0.0 mm
15:52 84 °F /  28.9 °C 59.7 °F /  15.4 °C 30.3 in /  1024.3 hPa ENE 6 mph /  9.7 km/h 9 mph /  14.5 km/h 44 % 0 in /  0.0 mm
15:57 83.7 °F /  28.7 °C 60.1 °F /  15.6 °C 30.2 in /  1023.9 hPa ENE 8 mph /  12.9 km/h 9 mph /  14.5 km/h 45 % 0 in /  0.0 mm
16:02 82.9 °F /  28.3 °C 59.4 °F /  15.2 °C 30.2 in /  1023.9 hPa NE 5 mph /  8.0 km/h 11 mph /  17.7 km/h 45 % 0 in /  0.0 mm
16:07 82.2 °F /  27.9 °C 58.8 °F /  14.9 °C 30.3 in /  1024.3 hPa NNW 6 mph /  9.7 km/h 11 mph /  17.7 km/h 45 % 0 in /  0.0 mm
16:12 82.6 °F /  28.1 °C 59 °F /  15.0 °C 30.2 in /  1023.9 hPa NE 5 mph /  8.0 km/h 11 mph /  17.7 km/h 45 % 0 in /  0.0 mm
16:17 83.5 °F /  28.6 °C 59.9 °F /  15.5 °C 30.2 in /  1023.9 hPa NNE 6 mph /  9.7 km/h 8 mph /  12.9 km/h 45 % 0 in /  0.0 mm
16:22 83.8 °F /  28.8 °C 60.3 °F /  15.7 °C 30.2 in /  1023.9 hPa East 8 mph /  12.9 km/h 12 mph /  19.3 km/h 45 % 0 in /  0.0 mm
16:27 83.5 °F /  28.6 °C 59.9 °F /  15.5 °C 30.2 in /  1023.9 hPa ENE 4 mph /  6.4 km/h 12 mph /  19.3 km/h 45 % 0 in /  0.0 mm
16:32 83.7 °F /  28.7 °C 60.1 °F /  15.6 °C 30.2 in /  1023.9 hPa West 2 mph /  3.2 km/h 12 mph /  19.3 km/h 45 % 0 in /  0.0 mm
16:37 84 °F /  28.9 °C 59.7 °F /  15.4 °C 30.2 in /  1023.9 hPa NE 2 mph /  3.2 km/h 11 mph /  17.7 km/h 44 % 0 in /  0.0 mm
16:42 83.7 °F /  28.7 °C 60.1 °F /  15.6 °C 30.2 in /  1023.9 hPa NNE 7 mph /  11.3 km/h 11 mph /  17.7 km/h 45 % 0 in /  0.0 mm
16:47 83.1 °F /  28.4 °C 59.5 °F /  15.3 °C 30.2 in /  1023.6 hPa NNE 5 mph /  8.0 km/h 11 mph /  17.7 km/h 45 % 0 in /  0.0 mm
16:52 82.6 °F /  28.1 °C 59 °F /  15.0 °C 30.2 in /  1023.6 hPa NE 5 mph /  8.0 km/h 11 mph /  17.7 km/h 45 % 0 in /  0.0 mm
16:57 83.3 °F /  28.5 °C 59.7 °F /  15.4 °C 30.2 in /  1023.6 hPa NE 5 mph /  8.0 km/h 10 mph /  16.1 km/h 45 % 0 in /  0.0 mm
17:02 84 °F /  28.9 °C 60.4 °F /  15.8 °C 30.2 in /  1023.6 hPa North 4 mph /  6.4 km/h 10 mph /  16.1 km/h 45 % 0 in /  0.0 mm
17:07 84.7 °F /  29.3 °C 60.4 °F /  15.8 °C 30.2 in /  1023.6 hPa North 4 mph /  6.4 km/h 10 mph /  16.1 km/h 44 % 0 in /  0.0 mm
17:12 84.2 °F /  29.0 °C 58.6 °F /  14.8 °C 30.2 in /  1023.6 hPa NE 4 mph /  6.4 km/h 9 mph /  14.5 km/h 42 % 0 in /  0.0 mm
17:17 84.4 °F /  29.1 °C 59.4 °F /  15.2 °C 30.2 in /  1023.6 hPa NW 5 mph /  8.0 km/h 9 mph /  14.5 km/h 43 % 0 in /  0.0 mm
17:22 84.4 °F /  29.1 °C 60.1 °F /  15.6 °C 30.2 in /  1023.2 hPa NNE 3 mph /  4.8 km/h 9 mph /  14.5 km/h 44 % 0 in /  0.0 mm
17:27 84.6 °F /  29.2 °C 59.5 °F /  15.3 °C 30.2 in /  1023.2 hPa NNE 5 mph /  8.0 km/h 13 mph /  20.9 km/h 43 % 0 in /  0.0 mm
17:32 84 °F /  28.9 °C 59.2 °F /  15.1 °C 30.2 in /  1023.2 hPa NW 5 mph /  8.0 km/h 13 mph /  20.9 km/h 43 % 0 in /  0.0 mm
17:37 84.7 °F /  29.3 °C 59.7 °F /  15.4 °C 30.2 in /  1023.2 hPa NNW 3 mph /  4.8 km/h 14 mph /  22.5 km/h 43 % 0 in /  0.0 mm
17:42 84 °F /  28.9 °C 59.2 °F /  15.1 °C 30.2 in /  1023.2 hPa NE 7 mph /  11.3 km/h 14 mph /  22.5 km/h 43 % 0 in /  0.0 mm
17:47 83.8 °F /  28.8 °C 59.5 °F /  15.3 °C 30.2 in /  1023.2 hPa NE 4 mph /  6.4 km/h 14 mph /  22.5 km/h 44 % 0 in /  0.0 mm
17:52 83.7 °F /  28.7 °C 58.8 °F /  14.9 °C 30.2 in /  1023.2 hPa NNE 7 mph /  11.3 km/h 13 mph /  20.9 km/h 43 % 0 in /  0.0 mm
17:57 83.8 °F /  28.8 °C 59.5 °F /  15.3 °C 30.2 in /  1023.2 hPa Calm   12 mph /  19.3 km/h 44 % 0 in /  0.0 mm
18:02 83.7 °F /  28.7 °C 59.4 °F /  15.2 °C 30.2 in /  1023.2 hPa North 3 mph /  4.8 km/h 10 mph /  16.1 km/h 44 % 0 in /  0.0 mm
18:07 83.8 °F /  28.8 °C 59.5 °F /  15.3 °C 30.2 in /  1023.2 hPa West 1 mph /  1.6 km/h 10 mph /  16.1 km/h 44 % 0 in /  0.0 mm
18:12 84.2 °F /  29.0 °C 60.6 °F /  15.9 °C 30.2 in /  1023.2 hPa NE 9 mph /  14.5 km/h 10 mph /  16.1 km/h 45 % 0 in /  0.0 mm
18:17 84.4 °F /  29.1 °C 59.4 °F /  15.2 °C 30.2 in /  1022.9 hPa NE 10 mph /  16.1 km/h 10 mph /  16.1 km/h 43 % 0 in /  0.0 mm
18:22 84 °F /  28.9 °C 59.7 °F /  15.4 °C 30.2 in /  1022.9 hPa NNW 3 mph /  4.8 km/h 11 mph /  17.7 km/h 44 % 0 in /  0.0 mm
18:27 84 °F /  28.9 °C 59.2 °F /  15.1 °C 30.2 in /  1022.9 hPa North 2 mph /  3.2 km/h 14 mph /  22.5 km/h 43 % 0 in /  0.0 mm
18:32 84 °F /  28.9 °C 58.5 °F /  14.7 °C 30.2 in /  1022.9 hPa NNE 3 mph /  4.8 km/h 14 mph /  22.5 km/h 42 % 0 in /  0.0 mm
18:37 84 °F /  28.9 °C 58.5 °F /  14.7 °C 30.2 in /  1022.9 hPa North 1 mph /  1.6 km/h 12 mph /  19.3 km/h 42 % 0 in /  0.0 mm
18:42 84.4 °F /  29.1 °C 59.4 °F /  15.2 °C 30.2 in /  1022.9 hPa NNE 5 mph /  8.0 km/h 10 mph /  16.1 km/h 43 % 0 in /  0.0 mm
18:47 84.4 °F /  29.1 °C 59.4 °F /  15.2 °C 30.2 in /  1022.9 hPa Calm   11 mph /  17.7 km/h 43 % 0 in /  0.0 mm
18:57 83.1 °F /  28.4 °C 59.5 °F /  15.3 °C 30.2 in /  1022.9 hPa NW 4 mph /  6.4 km/h 12 mph /  19.3 km/h 45 % 0 in /  0.0 mm
19:02 82.6 °F /  28.1 °C 59 °F /  15.0 °C 30.2 in /  1022.9 hPa NNW 7 mph /  11.3 km/h 12 mph /  19.3 km/h 45 % 0 in /  0.0 mm
19:07 82.2 °F /  27.9 °C 59.4 °F /  15.2 °C 30.2 in /  1022.6 hPa NNW 5 mph /  8.0 km/h 12 mph /  19.3 km/h 46 % 0 in /  0.0 mm
19:12 82 °F /  27.8 °C 59.9 °F /  15.5 °C 30.2 in /  1022.6 hPa NNW 7 mph /  11.3 km/h 9 mph /  14.5 km/h 47 % 0 in /  0.0 mm
19:17 81.9 °F /  27.7 °C 60.3 °F /  15.7 °C 30.2 in /  1022.6 hPa NW 6 mph /  9.7 km/h 8 mph /  12.9 km/h 48 % 0 in /  0.0 mm
19:22 81.9 °F /  27.7 °C 60.3 °F /  15.7 °C 30.2 in /  1022.6 hPa WNW 3 mph /  4.8 km/h 8 mph /  12.9 km/h 48 % 0 in /  0.0 mm
19:27 82 °F /  27.8 °C 59.9 °F /  15.5 °C 30.2 in /  1022.6 hPa North 4 mph /  6.4 km/h 8 mph /  12.9 km/h 47 % 0 in /  0.0 mm
19:32 81.9 °F /  27.7 °C 59.7 °F /  15.4 °C 30.2 in /  1022.6 hPa NNW 4 mph /  6.4 km/h 7 mph /  11.3 km/h 47 % 0 in /  0.0 mm
19:42 82.2 °F /  27.9 °C 59.9 °F /  15.5 °C 30.2 in /  1022.6 hPa North 4 mph /  6.4 km/h 6 mph /  9.7 km/h 47 % 0 in /  0.0 mm
19:47 82 °F /  27.8 °C 60.4 °F /  15.8 °C 30.2 in /  1022.6 hPa North 4 mph /  6.4 km/h 8 mph /  12.9 km/h 48 % 0 in /  0.0 mm
19:52 82.2 °F /  27.9 °C 60.6 °F /  15.9 °C 30.2 in /  1022.2 hPa NE 2 mph /  3.2 km/h 8 mph /  12.9 km/h 48 % 0 in /  0.0 mm
19:57 82 °F /  27.8 °C 60.4 °F /  15.8 °C 30.2 in /  1022.2 hPa NE 2 mph /  3.2 km/h 8 mph /  12.9 km/h 48 % 0 in /  0.0 mm
20:02 82 °F /  27.8 °C 60.4 °F /  15.8 °C 30.2 in /  1022.2 hPa NE 4 mph /  6.4 km/h 8 mph /  12.9 km/h 48 % 0 in /  0.0 mm
20:07 82.4 °F /  28.0 °C 60.8 °F /  16.0 °C 30.2 in /  1022.2 hPa NE 3 mph /  4.8 km/h 8 mph /  12.9 km/h 48 % 0 in /  0.0 mm
20:12 82.8 °F /  28.2 °C 60.4 °F /  15.8 °C 30.2 in /  1022.2 hPa NNE 3 mph /  4.8 km/h 6 mph /  9.7 km/h 47 % 0 in /  0.0 mm
20:17 82.8 °F /  28.2 °C 59.9 °F /  15.5 °C 30.2 in /  1022.2 hPa North 5 mph /  8.0 km/h 6 mph /  9.7 km/h 46 % 0 in /  0.0 mm
20:22 82.4 °F /  28.0 °C 60.1 °F /  15.6 °C 30.2 in /  1022.6 hPa NE 5 mph /  8.0 km/h 9 mph /  14.5 km/h 47 % 0 in /  0.0 mm
20:27 82.2 °F /  27.9 °C 59.9 °F /  15.5 °C 30.2 in /  1022.6 hPa NE 3 mph /  4.8 km/h 9 mph /  14.5 km/h 47 % 0 in /  0.0 mm
20:32 82.2 °F /  27.9 °C 59.9 °F /  15.5 °C 30.2 in /  1022.6 hPa NNE 2 mph /  3.2 km/h 9 mph /  14.5 km/h 47 % 0 in /  0.0 mm
20:37 82 °F /  27.8 °C 60.4 °F /  15.8 °C 30.2 in /  1022.6 hPa North 4 mph /  6.4 km/h 8 mph /  12.9 km/h 48 % 0 in /  0.0 mm
20:42 82 °F /  27.8 °C 60.4 °F /  15.8 °C 30.2 in /  1022.6 hPa NNE 2 mph /  3.2 km/h 8 mph /  12.9 km/h 48 % 0 in /  0.0 mm
20:47 82 °F /  27.8 °C 60.4 °F /  15.8 °C 30.2 in /  1022.2 hPa NE 4 mph /  6.4 km/h 8 mph /  12.9 km/h 48 % 0 in /  0.0 mm
20:57 81.9 °F /  27.7 °C 60.3 °F /  15.7 °C 30.2 in /  1022.2 hPa NNE 2 mph /  3.2 km/h 5 mph /  8.0 km/h 48 % 0 in /  0.0 mm
21:02 81.5 °F /  27.5 °C 60.4 °F /  15.8 °C 30.2 in /  1022.2 hPa Calm   5 mph /  8.0 km/h 49 % 0 in /  0.0 mm
21:07 81 °F /  27.2 °C 60.1 °F /  15.6 °C 30.2 in /  1022.2 hPa NE 2 mph /  3.2 km/h 4 mph /  6.4 km/h 49 % 0 in /  0.0 mm
21:12 80.6 °F /  27.0 °C 60.3 °F /  15.7 °C 30.2 in /  1022.2 hPa NE 3 mph /  4.8 km/h 4 mph /  6.4 km/h 50 % 0 in /  0.0 mm
21:17 80.1 °F /  26.7 °C 60.3 °F /  15.7 °C 30.2 in /  1022.2 hPa NNE 1 mph /  1.6 km/h 4 mph /  6.4 km/h 51 % 0 in /  0.0 mm
21:22 79.5 °F /  26.4 °C 60.4 °F /  15.8 °C 30.2 in /  1022.2 hPa NE 2 mph /  3.2 km/h 4 mph /  6.4 km/h 52 % 0 in /  0.0 mm
21:27 79.2 °F /  26.2 °C 60.6 °F /  15.9 °C 30.2 in /  1022.2 hPa NE 2 mph /  3.2 km/h 4 mph /  6.4 km/h 53 % 0 in /  0.0 mm
21:32 78.6 °F /  25.9 °C 60.6 °F /  15.9 °C 30.2 in /  1022.6 hPa ENE 1 mph /  1.6 km/h 3 mph /  4.8 km/h 54 % 0 in /  0.0 mm
21:37 78.1 °F /  25.6 °C 60.6 °F /  15.9 °C 30.2 in /  1022.6 hPa Calm   3 mph /  4.8 km/h 55 % 0 in /  0.0 mm
21:42 77.7 °F /  25.4 °C 60.8 °F /  16.0 °C 30.2 in /  1022.6 hPa Calm   3 mph /  4.8 km/h 56 % 0 in /  0.0 mm
21:47 77.5 °F /  25.3 °C 60.6 °F /  15.9 °C 30.2 in /  1022.6 hPa Calm   2 mph /  3.2 km/h 56 % 0 in /  0.0 mm
21:52 77.2 °F /  25.1 °C 60.8 °F /  16.0 °C 30.2 in /  1022.6 hPa Calm     57 % 0 in /  0.0 mm
21:57 76.8 °F /  24.9 °C 60.4 °F /  15.8 °C 30.2 in /  1022.6 hPa Calm     57 % 0 in /  0.0 mm
22:02 76.6 °F /  24.8 °C 60.8 °F /  16.0 °C 30.2 in /  1022.6 hPa Calm     58 % 0 in /  0.0 mm
22:07 76.3 °F /  24.6 °C 60.4 °F /  15.8 °C 30.2 in /  1022.6 hPa Calm     58 % 0 in /  0.0 mm
22:12 75.7 °F /  24.3 °C 60.4 °F /  15.8 °C 30.2 in /  1022.6 hPa Calm     59 % 0 in /  0.0 mm
22:17 75.4 °F /  24.1 °C 60.4 °F /  15.8 °C 30.2 in /  1022.6 hPa Calm     60 % 0 in /  0.0 mm
22:22 74.8 °F /  23.8 °C 60.4 °F /  15.8 °C 30.2 in /  1022.6 hPa Calm     61 % 0 in /  0.0 mm
22:27 74.1 °F /  23.4 °C 60.3 °F /  15.7 °C 30.2 in /  1022.6 hPa NW 1 mph /  1.6 km/h 1 mph /  1.6 km/h 62 % 0 in /  0.0 mm
22:37 73.6 °F /  23.1 °C 60.6 °F /  15.9 °C 30.2 in /  1022.6 hPa Calm   1 mph /  1.6 km/h 64 % 0 in /  0.0 mm
22:42 73.2 °F /  22.9 °C 60.3 °F /  15.7 °C 30.2 in /  1022.6 hPa NW 1 mph /  1.6 km/h 1 mph /  1.6 km/h 64 % 0 in /  0.0 mm
22:52 72.7 °F /  22.6 °C 60.3 °F /  15.7 °C 30.2 in /  1022.6 hPa NNW 1 mph /  1.6 km/h 3 mph /  4.8 km/h 65 % 0 in /  0.0 mm
22:57 72.7 °F /  22.6 °C 60.3 °F /  15.7 °C 30.2 in /  1022.6 hPa NNW 2 mph /  3.2 km/h 3 mph /  4.8 km/h 65 % 0 in /  0.0 mm
23:02 72.7 °F /  22.6 °C 60.3 °F /  15.7 °C 30.2 in /  1022.6 hPa NNW 2 mph /  3.2 km/h 3 mph /  4.8 km/h 65 % 0 in /  0.0 mm
23:07 72.3 °F /  22.4 °C 59.9 °F /  15.5 °C 30.2 in /  1022.6 hPa Calm   2 mph /  3.2 km/h 65 % 0 in /  0.0 mm
23:12 72 °F /  22.2 °C 59.9 °F /  15.5 °C 30.2 in /  1022.6 hPa Calm   2 mph /  3.2 km/h 66 % 0 in /  0.0 mm
23:22 71.4 °F /  21.9 °C 59.9 °F /  15.5 °C 30.2 in /  1022.6 hPa NNW 1 mph /  1.6 km/h 2 mph /  3.2 km/h 67 % 0 in /  0.0 mm
23:27 71.4 °F /  21.9 °C 59.9 °F /  15.5 °C 30.2 in /  1022.6 hPa NNW 1 mph /  1.6 km/h 2 mph /  3.2 km/h 67 % 0 in /  0.0 mm
23:32 71.4 °F /  21.9 °C 59.9 °F /  15.5 °C 30.2 in /  1022.6 hPa Calm   2 mph /  3.2 km/h 67 % 0 in /  0.0 mm
23:37 70.9 °F /  21.6 °C 59.7 °F /  15.4 °C 30.2 in /  1022.6 hPa Calm   2 mph /  3.2 km/h 68 % 0 in /  0.0 mm
23:42 70.3 °F /  21.3 °C 60.1 °F /  15.6 °C 30.2 in /  1022.6 hPa Calm   2 mph /  3.2 km/h 70 % 0 in /  0.0 mm
23:47 69.6 °F /  20.9 °C 60.3 °F /  15.7 °C 30.2 in /  1022.6 hPa WNW 1 mph /  1.6 km/h 1 mph /  1.6 km/h 72 % 0 in /  0.0 mm
23:57 69.3 °F /  20.7 °C 59.9 °F /  15.5 °C 30.2 in /  1022.6 hPa WNW 2 mph /  3.2 km/h 2 mph /  3.2 km/h 72 % 0 in /  0.0 mm
Meteo18
Compliments of Weather Underground - 4 mb

Script developed by  Jim McMurry - jmcmurry@mwt.net Adapted for the template by  Wim van der Kuil - Leuven-Template.eu

You find our weather info also at:

European Weather Network

Weather Underground

Equipment we use:

Weather-station
Davis Vue

Weather-program
Meteohub

Weather-server
Raspberry PI 2 B+

Provider
1 and 1

Davis Vue

Meteohub

Raspberry PI 2 B+

1 and 1